Time;durP1;ratioP1;P1;durP2;ratioP2;P2;SDS_P1;SDS_P2;PMS_P1;PMS_P2;Temp;Humidity;BMP_temperature;BMP_pressure;BME280_temperature;BME280_humidity;BME280_pressure;Samples;Min_cycle;Max_cycle;Signal;HPM_P1;HPM_P2
2021/12/26 00:01:12;;;;;;;22.27;13.10;;;4.60;99.90;;;;;;4904439;29;20047;-78
2021/12/26 00:03:40;;;;;;;23.58;14.00;;;4.70;99.90;;;;;;4900878;29;20053;-77
2021/12/26 00:06:12;;;;;;;24.20;13.75;;;4.70;99.90;;;;;;4886910;29;20083;-77
2021/12/26 00:08:39;;;;;;;23.67;14.68;;;4.70;99.90;;;;;;4901965;29;20101;-77
2021/12/26 00:11:05;;;;;;;21.60;13.48;;;4.60;99.90;;;;;;4914019;29;20029;-76
2021/12/26 00:13:32;;;;;;;24.90;13.82;;;4.60;99.90;;;;;;4886897;29;20037;-77
2021/12/26 00:15:59;;;;;;;20.50;13.07;;;4.60;99.90;;;;;;4916843;28;20041;-77
2021/12/26 00:18:26;;;;;;;23.48;13.65;;;4.50;99.90;;;;;;4917031;29;20279;-76
2021/12/26 00:20:52;;;;;;;20.63;13.15;;;4.50;99.90;;;;;;4887132;29;20037;-77
2021/12/26 00:23:18;;;;;;;21.83;12.65;;;4.50;99.90;;;;;;4916593;28;20029;-79
2021/12/26 00:25:44;;;;;;;18.73;12.57;;;4.50;99.90;;;;;;4908337;28;20035;-78
2021/12/26 00:28:12;;;;;;;20.45;13.20;;;4.40;99.90;;;;;;4904873;29;20064;-78
2021/12/26 00:30:38;;;;;;;19.35;11.88;;;4.40;99.90;;;;;;4904867;29;20061;-77
2021/12/26 00:33:05;;;;;;;16.70;11.25;;;4.40;99.90;;;;;;4904979;29;20021;-79
2021/12/26 00:35:33;;;;;;;19.33;11.80;;;4.50;99.90;;;;;;4905250;29;20046;-77
2021/12/26 00:37:58;;;;;;;17.42;11.43;;;4.60;99.90;;;;;;4904124;28;20136;-77
2021/12/26 00:40:26;;;;;;;17.33;11.63;;;4.60;99.90;;;;;;4903869;28;20108;-77
2021/12/26 00:42:54;;;;;;;16.92;11.00;;;4.50;99.90;;;;;;4919954;28;20091;-77
2021/12/26 00:45:20;;;;;;;16.27;10.63;;;4.50;99.90;;;;;;4900060;29;20028;-78
2021/12/26 00:47:47;;;;;;;16.50;10.43;;;4.50;99.90;;;;;;4920190;28;20055;-77
2021/12/26 00:50:15;;;;;;;16.40;10.57;;;4.50;99.90;;;;;;4904813;29;20382;-78
2021/12/26 00:52:41;;;;;;;17.45;10.85;;;4.40;99.90;;;;;;4905225;29;20040;-77
2021/12/26 00:55:10;;;;;;;17.70;10.40;;;4.50;99.90;;;;;;4903811;29;20111;-78
2021/12/26 00:57:36;;;;;;;16.10;10.18;;;4.50;99.90;;;;;;4905182;29;20049;-77
2021/12/26 01:00:09;;;;;;;17.40;10.77;;;4.50;99.90;;;;;;4904716;29;20032;-78
2021/12/26 01:02:35;;;;;;;16.75;9.88;;;4.50;99.90;;;;;;4905169;29;20060;-78
2021/12/26 01:05:02;;;;;;;16.92;10.73;;;4.40;99.90;;;;;;4902997;29;20029;-78
2021/12/26 01:07:41;;;;;;;15.48;9.80;;;4.40;99.90;;;;;;4900581;29;20078;-78
2021/12/26 01:10:08;;;;;;;17.33;9.40;;;4.40;99.90;;;;;;4903552;29;20141;-78
2021/12/26 01:12:36;;;;;;;16.13;9.55;;;4.50;99.90;;;;;;4905019;29;20036;-78
2021/12/26 01:15:06;;;;;;;16.13;9.50;;;4.50;99.90;;;;;;4903529;28;20040;-79
2021/12/26 01:17:45;;;;;;;16.15;10.20;;;4.40;99.90;;;;;;4904283;28;20036;-79
2021/12/26 01:20:38;;;;;;;18.45;10.93;;;4.40;99.90;;;;;;4903649;28;20047;-78
2021/12/26 01:23:06;;;;;;;17.52;10.40;;;4.40;99.90;;;;;;4903894;28;20223;-77
2021/12/26 01:25:32;;;;;;;16.90;10.80;;;4.50;99.90;;;;;;4903774;28;20032;-78
2021/12/26 01:27:58;;;;;;;17.98;11.10;;;4.40;99.90;;;;;;4900157;28;20029;-79
2021/12/26 01:30:25;;;;;;;17.48;10.57;;;4.40;99.90;;;;;;4899543;28;20048;-78
2021/12/26 01:32:54;;;;;;;18.23;10.90;;;4.40;99.90;;;;;;4885000;29;20033;-78
2021/12/26 01:35:36;;;;;;;19.20;11.05;;;4.40;99.90;;;;;;4886186;29;20031;-77
2021/12/26 01:38:20;;;;;;;17.88;10.38;;;4.30;99.90;;;;;;4884632;28;20036;-78
2021/12/26 01:40:55;;;;;;;19.42;11.40;;;4.30;99.90;;;;;;4885894;29;20053;-79
2021/12/26 01:43:45;;;;;;;18.75;11.00;;;4.40;99.90;;;;;;4884718;29;20037;-78
2021/12/26 01:46:29;;;;;;;19.05;11.23;;;4.40;99.90;;;;;;4899535;28;20103;-78
2021/12/26 01:49:26;;;;;;;17.98;11.07;;;4.40;99.90;;;;;;4911839;28;20037;-77
2021/12/26 01:51:55;;;;;;;21.00;11.65;;;4.30;99.90;;;;;;4889701;29;20072;-78
2021/12/26 01:54:39;;;;;;;18.48;11.20;;;4.40;99.90;;;;;;4900204;29;20040;-78
2021/12/26 01:57:08;;;;;;;18.48;11.15;;;4.40;99.90;;;;;;4884561;28;20219;-77
2021/12/26 01:59:34;;;;;;;20.10;11.50;;;4.40;99.90;;;;;;4915542;28;20041;-77
2021/12/26 02:02:09;;;;;;;18.90;11.18;;;4.40;99.90;;;;;;4902395;28;20112;-77
2021/12/26 02:04:40;;;;;;;18.17;11.45;;;4.40;99.90;;;;;;4903568;28;20052;-78
2021/12/26 02:07:09;;;;;;;18.05;11.10;;;4.30;99.90;;;;;;4903543;29;20047;-77
2021/12/26 02:09:36;;;;;;;18.88;11.38;;;4.30;99.90;;;;;;4891141;28;20041;-78
2021/12/26 02:12:04;;;;;;;17.60;10.67;;;4.40;99.90;;;;;;4888170;29;20036;-78
2021/12/26 02:14:33;;;;;;;18.30;11.20;;;4.40;99.90;;;;;;4893894;29;20056;-77
2021/12/26 02:17:28;;;;;;;16.92;10.95;;;4.50;99.90;;;;;;4897695;28;20029;-78
2021/12/26 02:20:12;;;;;;;17.90;11.48;;;4.60;99.90;;;;;;4900043;29;20068;-78
2021/12/26 02:22:41;;;;;;;18.42;11.15;;;4.50;99.90;;;;;;4894896;29;20065;-79
2021/12/26 02:25:28;;;;;;;19.98;11.98;;;4.60;99.90;;;;;;4889433;29;20025;-78
2021/12/26 02:27:54;;;;;;;16.00;10.57;;;4.60;99.90;;;;;;4903564;29;20063;-78
2021/12/26 02:30:22;;;;;;;17.50;10.80;;;4.60;99.90;;;;;;4890462;29;20073;-78
2021/12/26 02:32:51;;;;;;;17.30;10.77;;;4.60;99.90;;;;;;4903117;29;20021;-78
2021/12/26 02:35:21;;;;;;;19.25;11.70;;;4.60;99.90;;;;;;4902623;28;20029;-79
2021/12/26 02:37:47;;;;;;;17.80;10.93;;;4.60;99.90;;;;;;4888371;29;20350;-78
2021/12/26 02:40:14;;;;;;;17.40;10.57;;;4.50;99.90;;;;;;4887096;28;20083;-78
2021/12/26 02:42:40;;;;;;;17.33;11.38;;;4.60;99.90;;;;;;4887251;28;20249;-77
2021/12/26 02:45:06;;;;;;;17.52;11.00;;;4.60;99.90;;;;;;4902838;28;20075;-78
2021/12/26 02:47:37;;;;;;;19.20;12.18;;;4.50;99.90;;;;;;4902616;28;20120;-78
2021/12/26 02:50:10;;;;;;;16.55;10.60;;;4.50;99.90;;;;;;4899676;28;20124;-77
2021/12/26 02:52:36;;;;;;;16.27;10.52;;;4.40;99.90;;;;;;4888098;29;20048;-78
2021/12/26 02:55:03;;;;;;;17.10;10.57;;;4.50;99.90;;;;;;4903329;29;20103;-78
2021/12/26 02:57:28;;;;;;;17.73;10.75;;;4.60;99.90;;;;;;4902018;29;20080;-77
2021/12/26 02:59:55;;;;;;;18.13;11.02;;;4.50;99.90;;;;;;4888162;29;20040;-78
2021/12/26 03:02:20;;;;;;;16.38;10.30;;;4.60;99.90;;;;;;4887903;29;20040;-78
2021/12/26 03:04:46;;;;;;;16.77;11.05;;;4.60;99.90;;;;;;4888230;29;20037;-78
2021/12/26 03:07:12;;;;;;;17.17;11.27;;;4.60;99.90;;;;;;4902310;28;20033;-78
2021/12/26 03:10:00;;;;;;;17.20;10.60;;;4.60;99.90;;;;;;4901811;29;20109;-78
2021/12/26 03:12:45;;;;;;;17.83;11.10;;;4.70;99.90;;;;;;4900459;29;20045;-79
2021/12/26 03:15:31;;;;;;;19.65;11.88;;;4.60;99.90;;;;;;4887406;29;20401;-78
2021/12/26 03:18:16;;;;;;;19.10;11.95;;;4.60;99.90;;;;;;4887591;29;20040;-78
2021/12/26 03:21:00;;;;;;;18.85;11.73;;;4.60;99.90;;;;;;4887873;29;20072;-78
2021/12/26 03:23:45;;;;;;;20.30;11.80;;;4.60;99.90;;;;;;4887674;29;20048;-79
2021/12/26 03:26:29;;;;;;;19.65;12.00;;;4.50;99.90;;;;;;4887337;29;20048;-79
2021/12/26 03:29:13;;;;;;;19.63;11.73;;;4.50;99.90;;;;;;4887373;29;20108;-79
2021/12/26 03:31:59;;;;;;;19.30;12.05;;;4.40;99.90;;;;;;4898680;29;20117;-79
2021/12/26 03:34:48;;;;;;;22.67;12.98;;;4.50;99.90;;;;;;4906442;29;20038;-79
2021/12/26 03:37:15;;;;;;;20.20;12.05;;;4.50;99.90;;;;;;4904703;29;20029;-79
2021/12/26 03:39:42;;;;;;;19.38;11.98;;;4.50;99.90;;;;;;4920869;29;20311;-78
2021/12/26 03:42:08;;;;;;;21.17;12.05;;;4.50;99.90;;;;;;4905244;29;20039;-78
2021/12/26 03:44:36;;;;;;;16.08;9.43;;;4.60;99.90;;;;;;4920521;29;20039;-79
2021/12/26 03:47:03;;;;;;;21.92;12.57;;;4.60;99.90;;;;;;4921115;29;20029;-78
2021/12/26 03:49:30;;;;;;;21.38;13.15;;;4.60;99.90;;;;;;4904707;28;20040;-78
2021/12/26 03:51:56;;;;;;;21.58;12.50;;;4.60;99.90;;;;;;4901273;29;20083;-79
2021/12/26 03:54:22;;;;;;;21.73;13.35;;;4.60;99.90;;;;;;4889208;28;20025;-78
2021/12/26 03:57:13;;;;;;;22.75;13.60;;;4.50;99.90;;;;;;4912406;29;20049;-78
2021/12/26 03:59:39;;;;;;;22.70;13.43;;;4.50;99.90;;;;;;4885589;29;20037;-78
2021/12/26 04:02:06;;;;;;;22.48;13.18;;;4.50;99.90;;;;;;4886231;28;20052;-78
2021/12/26 04:04:32;;;;;;;24.00;13.10;;;4.50;99.90;;;;;;4870207;29;20025;-78
2021/12/26 04:06:58;;;;;;;22.05;13.23;;;4.50;99.90;;;;;;4886418;29;20048;-78
2021/12/26 04:09:24;;;;;;;21.42;12.38;;;4.50;99.90;;;;;;4885877;29;20211;-79
2021/12/26 04:11:50;;;;;;;23.10;13.18;;;4.50;99.90;;;;;;4885394;29;20040;-79
2021/12/26 04:14:18;;;;;;;23.35;12.88;;;4.50;99.90;;;;;;4851886;29;20123;-77
2021/12/26 04:16:43;;;;;;;23.98;13.30;;;4.60;99.90;;;;;;4883283;28;20036;-77
2021/12/26 04:19:10;;;;;;;21.35;13.00;;;4.60;99.90;;;;;;4882943;29;20038;-77
2021/12/26 04:21:36;;;;;;;22.85;13.88;;;4.60;99.90;;;;;;4882565;28;20025;-77
2021/12/26 04:24:04;;;;;;;23.02;14.02;;;4.60;99.90;;;;;;4882915;29;20064;-77
2021/12/26 04:26:31;;;;;;;22.40;13.13;;;4.60;99.90;;;;;;4881287;29;20057;-77
2021/12/26 04:28:57;;;;;;;28.48;15.00;;;4.60;99.90;;;;;;4868812;29;20048;-77
2021/12/26 04:31:23;;;;;;;22.98;12.85;;;4.60;99.90;;;;;;4882374;29;20045;-77
2021/12/26 04:33:50;;;;;;;24.15;13.95;;;4.60;99.90;;;;;;4885910;28;20029;-78
2021/12/26 04:36:20;;;;;;;23.35;13.23;;;4.70;99.90;;;;;;4867283;29;20090;-78
2021/12/26 04:38:46;;;;;;;22.48;12.70;;;4.70;99.90;;;;;;4867845;29;20044;-77
2021/12/26 04:41:13;;;;;;;24.15;13.88;;;4.70;99.90;;;;;;4867237;29;20030;-77
2021/12/26 04:43:42;;;;;;;26.45;14.60;;;4.70;99.90;;;;;;4866262;29;20067;-78
2021/12/26 04:46:23;;;;;;;23.77;13.63;;;4.70;99.90;;;;;;4882332;28;20096;-78
2021/12/26 04:48:54;;;;;;;26.08;14.75;;;4.70;99.90;;;;;;4867186;28;20076;-77
2021/12/26 04:51:20;;;;;;;23.10;13.43;;;4.60;99.90;;;;;;4866268;29;20030;-78
2021/12/26 04:53:53;;;;;;;23.85;13.52;;;4.60;99.90;;;;;;4931706;28;20112;-77
2021/12/26 04:56:37;;;;;;;23.42;13.27;;;4.70;99.90;;;;;;4881886;29;20045;-78
2021/12/26 04:59:04;;;;;;;23.77;13.52;;;4.60;99.90;;;;;;4898890;29;20053;-77
2021/12/26 05:01:31;;;;;;;26.25;14.15;;;4.70;99.90;;;;;;4885883;29;20032;-78
2021/12/26 05:03:58;;;;;;;25.30;14.32;;;4.70;99.90;;;;;;4886697;29;20061;-78
2021/12/26 05:06:27;;;;;;;25.80;13.63;;;4.60;99.90;;;;;;4900625;29;20037;-78
2021/12/26 05:08:53;;;;;;;24.98;14.45;;;4.60;99.90;;;;;;4900647;29;20035;-77
2021/12/26 05:11:19;;;;;;;24.67;13.55;;;4.60;99.90;;;;;;4885088;28;20032;-78
2021/12/26 05:13:45;;;;;;;24.23;13.88;;;4.70;99.90;;;;;;4886511;29;20036;-78
2021/12/26 05:16:11;;;;;;;26.75;14.32;;;4.70;99.90;;;;;;4889932;29;20215;-77
2021/12/26 05:18:38;;;;;;;20.58;12.40;;;4.70;99.90;;;;;;4884563;29;20033;-77
2021/12/26 05:21:05;;;;;;;23.77;13.70;;;4.80;99.90;;;;;;4885059;29;20036;-77
2021/12/26 05:23:31;;;;;;;24.38;13.13;;;4.80;99.90;;;;;;4869387;29;20033;-77
2021/12/26 05:25:58;;;;;;;24.08;14.00;;;4.90;99.90;;;;;;4900697;29;20058;-77
2021/12/26 05:28:26;;;;;;;22.98;13.40;;;4.90;99.90;;;;;;4888666;29;20029;-77
2021/12/26 05:30:52;;;;;;;25.33;13.95;;;4.90;99.90;;;;;;4914628;28;20076;-77
2021/12/26 05:33:23;;;;;;;25.17;13.95;;;5.00;99.90;;;;;;4898688;29;20025;-77
2021/12/26 05:35:51;;;;;;;23.15;13.65;;;4.90;99.90;;;;;;4910586;29;20021;-78
2021/12/26 05:38:17;;;;;;;24.75;14.55;;;5.00;99.90;;;;;;4901541;28;20060;-77
2021/12/26 05:40:46;;;;;;;24.90;13.95;;;5.00;99.90;;;;;;4884593;29;20183;-78
2021/12/26 05:43:12;;;;;;;25.08;13.98;;;5.00;99.90;;;;;;4900281;28;20040;-78
2021/12/26 05:45:38;;;;;;;23.90;14.48;;;4.90;99.90;;;;;;4885520;29;20041;-76
2021/12/26 05:48:17;;;;;;;23.15;13.95;;;4.90;99.90;;;;;;4900177;28;20025;-77
2021/12/26 05:50:43;;;;;;;24.00;13.85;;;4.90;99.90;;;;;;4884275;28;20095;-77
2021/12/26 05:53:29;;;;;;;21.17;12.98;;;4.90;99.90;;;;;;4885186;28;20104;-77
2021/12/26 05:55:54;;;;;;;23.85;12.65;;;5.00;99.90;;;;;;4899966;29;20037;-77
2021/12/26 05:58:20;;;;;;;22.60;13.70;;;5.00;99.90;;;;;;4918686;28;20048;-77
2021/12/26 06:00:49;;;;;;;25.13;14.15;;;5.00;99.90;;;;;;4902977;29;20343;-77
2021/12/26 06:03:33;;;;;;;;;;;5.00;99.90;;;;;;4902780;29;20024;-77
2021/12/26 06:05:59;;;;;;;24.38;13.60;;;5.00;99.90;;;;;;4903372;28;20098;-77
2021/12/26 06:08:33;;;;;;;22.58;13.55;;;5.00;99.90;;;;;;4902922;29;20025;-76
2021/12/26 06:10:59;;;;;;;21.55;12.82;;;5.00;99.90;;;;;;4903255;28;20056;-77
2021/12/26 06:13:25;;;;;;;24.25;13.85;;;5.00;99.90;;;;;;4887178;28;20025;-77
2021/12/26 06:15:51;;;;;;;24.17;13.68;;;5.00;99.90;;;;;;4902777;28;20041;-77
2021/12/26 06:18:17;;;;;;;23.95;13.80;;;5.00;99.90;;;;;;4902346;28;20021;-77
2021/12/26 06:21:01;;;;;;;24.13;14.02;;;5.00;99.90;;;;;;4904045;29;20055;-77
2021/12/26 06:23:50;;;;;;;25.65;14.80;;;5.00;99.90;;;;;;4903606;28;20099;-77
2021/12/26 06:26:32;;;;;;;25.65;14.10;;;4.90;99.90;;;;;;4903875;29;20029;-77
2021/12/26 06:29:03;;;;;;;23.27;13.90;;;4.80;99.90;;;;;;4903129;28;20311;-76
2021/12/26 06:35:08;;;;;;;24.92;14.45;;;4.90;99.90;;;;;;4981250;28;20058;-76
2021/12/26 06:37:54;;;;;;;24.17;13.80;;;5.00;99.90;;;;;;4962118;28;20329;-77
2021/12/26 06:40:42;;;;;;;25.08;15.05;;;5.00;99.90;;;;;;4903296;29;20055;-77
2021/12/26 06:47:14;;;;;;;;;;;5.00;99.90;;;;;;4904039;28;20075;-77
2021/12/26 06:53:23;;;;;;;27.08;14.25;;;5.00;99.90;;;;;;4906980;29;20083;-77
2021/12/26 06:55:48;;;;;;;28.48;14.05;;;5.00;99.90;;;;;;4889752;29;20060;-77
2021/12/26 06:58:40;;;;;;;26.42;14.52;;;4.90;99.90;;;;;;4904495;29;20044;-77
2021/12/26 07:01:10;;;;;;;26.30;14.15;;;5.00;99.90;;;;;;4888037;28;20037;-77
2021/12/26 07:03:40;;;;;;;25.75;14.32;;;5.00;99.90;;;;;;4901920;29;20029;-77
2021/12/26 07:09:53;;;;;;;25.60;13.43;;;5.00;99.90;;;;;;4894824;29;20028;-78
2021/12/26 07:12:19;;;;;;;26.52;13.68;;;5.00;99.90;;;;;;4905765;28;20320;-78
2021/12/26 07:14:57;;;;;;;24.23;13.40;;;5.10;99.90;;;;;;4905827;28;20271;-77
2021/12/26 07:17:26;;;;;;;;;;;5.20;99.90;;;;;;4896706;28;20113;-77
2021/12/26 07:19:54;;;;;;;23.05;13.13;;;5.20;99.90;;;;;;4906551;29;20187;-76
2021/12/26 07:22:38;;;;;;;24.27;13.43;;;5.10;99.90;;;;;;4887409;29;20263;-78
2021/12/26 07:25:06;;;;;;;25.70;13.90;;;5.20;99.90;;;;;;4888123;29;20057;-77
2021/12/26 07:27:31;;;;;;;23.27;12.60;;;5.20;99.90;;;;;;4901861;28;20191;-78
2021/12/26 07:30:20;;;;;;;25.85;14.05;;;5.30;99.90;;;;;;4887042;28;20040;-77
2021/12/26 07:32:47;;;;;;;24.98;13.25;;;5.30;99.90;;;;;;4901809;28;20216;-78
2021/12/26 07:35:13;;;;;;;24.95;13.85;;;5.30;99.90;;;;;;4902071;28;20037;-78
2021/12/26 07:37:40;;;;;;;23.05;13.13;;;5.30;99.90;;;;;;4894863;28;20112;-78
2021/12/26 07:40:09;;;;;;;26.63;14.73;;;5.30;99.90;;;;;;4876422;29;20043;-77
2021/12/26 07:42:35;;;;;;;24.25;13.82;;;5.40;99.90;;;;;;4885925;29;20044;-77
2021/12/26 07:45:19;;;;;;;27.85;14.60;;;5.40;99.90;;;;;;4885967;28;20390;-77
2021/12/26 07:47:50;;;;;;;24.45;13.25;;;5.40;99.90;;;;;;4886902;29;20223;-78
2021/12/26 07:50:16;;;;;;;26.08;14.65;;;5.50;99.90;;;;;;4887513;29;20056;-78
2021/12/26 07:53:06;;;;;;;26.88;14.40;;;5.40;99.90;;;;;;4887546;29;20188;-78
2021/12/26 07:55:53;;;;;;;27.90;14.60;;;5.50;99.90;;;;;;4925121;29;20208;-77
2021/12/26 07:58:37;;;;;;;25.00;14.23;;;5.50;99.90;;;;;;4885797;29;20080;-77
2021/12/26 08:01:21;;;;;;;25.08;14.75;;;5.50;99.90;;;;;;4889187;28;20112;-78
2021/12/26 08:04:11;;;;;;;26.15;14.50;;;5.50;99.90;;;;;;4898435;28;20033;-78
2021/12/26 08:06:59;;;;;;;26.15;13.90;;;5.60;99.90;;;;;;4886879;29;20037;-77
2021/12/26 08:09:25;;;;;;;23.50;13.43;;;5.70;99.90;;;;;;4889213;28;20300;-77
2021/12/26 08:12:19;;;;;;;26.65;14.45;;;5.70;99.90;;;;;;4904369;28;20045;-78
2021/12/26 08:14:44;;;;;;;27.05;14.32;;;5.80;99.90;;;;;;4904037;28;20047;-77
2021/12/26 08:17:10;;;;;;;24.63;14.30;;;5.80;99.90;;;;;;4885290;28;20060;-78
2021/12/26 08:19:37;;;;;;;25.13;14.23;;;5.80;99.90;;;;;;4886511;29;20072;-77
2021/12/26 08:22:03;;;;;;;23.65;14.05;;;5.90;99.90;;;;;;4894135;29;20040;-78
2021/12/26 08:24:45;;;;;;;24.77;13.95;;;5.90;99.90;;;;;;5079612;28;20632;-78
2021/12/26 08:27:11;;;;;;;26.63;14.98;;;5.90;99.90;;;;;;5079961;28;20271;-77
2021/12/26 08:29:37;;;;;;;25.00;13.93;;;6.00;99.90;;;;;;5078222;28;20321;-78
2021/12/26 08:32:03;;;;;;;25.77;14.68;;;6.00;99.90;;;;;;5044459;28;20038;-78
2021/12/26 08:34:29;;;;;;;25.90;14.50;;;6.00;99.90;;;;;;5038716;28;20053;-77
2021/12/26 08:37:02;;;;;;;25.75;15.07;;;6.10;99.90;;;;;;5039508;28;20376;-78
2021/12/26 08:39:37;;;;;;;28.77;16.55;;;5.90;99.90;;;;;;5040969;28;20113;-78
2021/12/26 08:42:04;;;;;;;29.55;16.30;;;6.00;99.90;;;;;;5039737;28;20041;-79
2021/12/26 08:44:33;;;;;;;27.00;15.23;;;6.10;99.90;;;;;;5041933;28;20033;-76
2021/12/26 08:46:59;;;;;;;25.65;15.07;;;6.20;99.90;;;;;;5053192;28;20048;-77
2021/12/26 08:49:25;;;;;;;29.52;16.98;;;6.20;99.90;;;;;;5053024;28;20057;-75
2021/12/26 08:51:52;;;;;;;26.70;14.55;;;6.30;99.90;;;;;;5042980;28;20026;-77
2021/12/26 08:54:17;;;;;;;28.17;14.93;;;6.30;99.90;;;;;;5039592;28;20036;-76
2021/12/26 08:56:46;;;;;;;24.95;13.90;;;6.30;99.90;;;;;;5038683;28;20022;-79
2021/12/26 08:59:30;;;;;;;28.08;15.80;;;6.30;99.90;;;;;;5039413;28;20361;-78
2021/12/26 09:02:04;;;;;;;26.45;15.90;;;6.40;99.90;;;;;;5037280;28;20041;-79
2021/12/26 09:04:30;;;;;;;23.42;14.00;;;6.40;99.90;;;;;;5039150;28;20271;-79
2021/12/26 09:06:57;;;;;;;25.05;15.32;;;6.70;99.90;;;;;;5038628;28;20037;-78
2021/12/26 09:09:24;;;;;;;28.40;16.08;;;6.80;99.90;;;;;;5039159;28;20025;-79
2021/12/26 09:11:50;;;;;;;25.52;15.45;;;7.00;99.90;;;;;;5022192;28;20344;-79
2021/12/26 09:14:16;;;;;;;24.95;14.65;;;7.10;99.90;;;;;;5019539;28;20026;-79
2021/12/26 09:16:42;;;;;;;24.35;14.05;;;7.20;99.90;;;;;;5018043;28;20045;-79
2021/12/26 09:19:08;;;;;;;24.40;14.70;;;7.10;99.90;;;;;;5019669;28;20192;-79
2021/12/26 09:21:35;;;;;;;26.92;16.10;;;7.10;99.90;;;;;;5018139;28;20209;-78
2021/12/26 09:24:03;;;;;;;26.20;14.95;;;7.00;99.90;;;;;;5018883;28;20126;-79
2021/12/26 09:26:55;;;;;;;25.98;14.68;;;7.10;99.90;;;;;;5019146;28;20033;-80
2021/12/26 09:29:22;;;;;;;23.40;14.32;;;7.10;99.90;;;;;;5019327;28;20320;-80
2021/12/26 09:31:48;;;;;;;23.35;13.73;;;7.10;99.90;;;;;;5018165;28;20088;-79
2021/12/26 09:34:16;;;;;;;22.48;13.63;;;7.20;99.90;;;;;;5015941;28;20034;-79
2021/12/26 09:36:43;;;;;;;23.10;13.30;;;7.20;99.90;;;;;;5017639;28;20080;-79
2021/12/26 09:39:18;;;;;;;23.27;13.27;;;7.20;99.90;;;;;;5008333;28;20037;-79
2021/12/26 09:41:44;;;;;;;25.33;13.88;;;7.40;99.90;;;;;;5024045;28;20030;-79
2021/12/26 09:44:10;;;;;;;22.20;13.45;;;7.50;99.90;;;;;;5024233;28;20038;-79
2021/12/26 09:46:36;;;;;;;24.65;14.30;;;7.50;99.90;;;;;;5023802;28;20209;-79
2021/12/26 09:49:03;;;;;;;22.05;13.38;;;7.60;99.90;;;;;;5024274;28;20272;-79
2021/12/26 09:51:29;;;;;;;23.85;13.98;;;7.70;99.90;;;;;;5024148;28;20034;-79
2021/12/26 09:53:55;;;;;;;25.27;14.68;;;7.70;99.90;;;;;;5024841;28;20084;-79
2021/12/26 09:56:21;;;;;;;22.15;13.85;;;7.60;99.90;;;;;;5024391;28;20028;-78
2021/12/26 09:59:04;;;;;;;21.52;13.85;;;7.70;99.90;;;;;;5024733;28;20033;-78
2021/12/26 10:01:31;;;;;;;26.65;16.00;;;7.80;99.90;;;;;;5023706;28;20041;-79
2021/12/26 10:04:19;;;;;;;24.00;14.68;;;7.90;99.90;;;;;;5023177;28;20038;-79
2021/12/26 10:06:48;;;;;;;30.30;14.85;;;7.90;99.90;;;;;;5022930;28;20209;-78
2021/12/26 10:09:14;;;;;;;23.50;14.30;;;8.00;99.90;;;;;;5025085;28;20033;-78
2021/12/26 10:11:42;;;;;;;24.10;14.75;;;7.70;99.90;;;;;;5024675;28;20045;-79
2021/12/26 10:14:09;;;;;;;22.42;13.32;;;7.80;99.90;;;;;;5024893;28;20060;-79
2021/12/26 10:16:42;;;;;;;22.35;13.45;;;7.90;99.90;;;;;;5023230;28;20038;-78
2021/12/26 10:19:09;;;;;;;22.20;14.23;;;8.00;99.90;;;;;;5000728;28;20037;-79
2021/12/26 10:21:54;;;;;;;22.90;13.10;;;8.10;99.90;;;;;;5004906;28;20253;-78
2021/12/26 10:24:44;;;;;;;18.85;11.85;;;8.20;99.90;;;;;;5003539;28;20046;-78
2021/12/26 10:27:27;;;;;;;17.58;11.38;;;8.40;99.90;;;;;;5004646;28;20098;-78
2021/12/26 10:29:59;;;;;;;15.18;10.05;;;8.50;99.90;;;;;;5003408;28;20228;-78
2021/12/26 10:32:33;;;;;;;16.63;10.40;;;8.70;99.90;;;;;;5020526;28;20236;-79
2021/12/26 10:35:08;;;;;;;12.93;8.63;;;8.90;99.90;;;;;;5003461;28;20207;-80
2021/12/26 10:37:46;;;;;;;15.10;8.57;;;9.00;99.90;;;;;;5006770;28;20061;-80
2021/12/26 10:40:15;;;;;;;11.10;7.20;;;9.00;99.90;;;;;;5006918;28;20077;-79
2021/12/26 10:42:50;;;;;;;9.98;6.82;;;9.00;99.90;;;;;;5023027;28;20029;-80
2021/12/26 10:45:20;;;;;;;10.32;6.85;;;9.10;99.90;;;;;;5022782;28;20073;-78
2021/12/26 10:48:23;;;;;;;12.30;7.50;;;8.90;99.90;;;;;;5022881;28;20048;-79
2021/12/26 10:50:49;;;;;;;10.82;7.05;;;8.80;99.90;;;;;;5023420;28;20100;-79
2021/12/26 10:53:15;;;;;;;12.18;7.88;;;8.50;99.90;;;;;;5023402;28;20017;-79
2021/12/26 10:55:51;;;;;;;11.85;7.10;;;8.40;99.90;;;;;;5022682;28;20026;-80
2021/12/26 10:58:20;;;;;;;11.80;7.40;;;8.30;99.90;;;;;;5022058;28;20097;-78
2021/12/26 11:00:54;;;;;;;13.65;7.75;;;8.30;99.90;;;;;;5023038;28;20076;-78
2021/12/26 11:03:23;;;;;;;10.02;6.90;;;8.20;99.90;;;;;;5022900;28;20037;-79
2021/12/26 11:06:02;;;;;;;11.82;7.60;;;8.10;99.90;;;;;;5023163;28;20033;-79
2021/12/26 11:08:31;;;;;;;12.23;8.20;;;8.20;99.90;;;;;;5022435;28;20351;-79
2021/12/26 11:10:58;;;;;;;11.27;7.63;;;8.30;99.90;;;;;;5021918;28;20049;-79
2021/12/26 11:13:26;;;;;;;10.35;7.25;;;8.30;99.90;;;;;;5023666;28;20244;-79
2021/12/26 11:16:06;;;;;;;14.18;7.53;;;8.50;99.90;;;;;;5022478;28;20041;-79
2021/12/26 11:18:33;;;;;;;9.88;6.90;;;8.70;99.90;;;;;;5023690;28;20045;-79
2021/12/26 11:21:02;;;;;;;9.43;6.38;;;9.00;99.90;;;;;;5001480;28;20030;-79
2021/12/26 11:23:29;;;;;;;;;;;9.10;99.90;;;;;;5019204;28;20058;-79
2021/12/26 11:25:58;;;;;;;11.20;7.03;;;9.20;99.90;;;;;;5002436;28;19912;-79
2021/12/26 11:28:28;;;;;;;10.07;6.60;;;9.40;99.90;;;;;;5003758;28;20281;-78
2021/12/26 11:30:57;;;;;;;9.75;6.70;;;9.50;99.90;;;;;;5018034;28;20039;-78
2021/12/26 11:33:23;;;;;;;10.45;6.57;;;9.70;99.90;;;;;;5019237;28;20022;-80
2021/12/26 11:35:50;;;;;;;9.07;6.25;;;9.90;99.90;;;;;;5018155;28;20085;-78
2021/12/26 11:38:19;;;;;;;9.15;5.40;;;10.10;99.90;;;;;;5003661;28;20026;-79
2021/12/26 11:41:35;;;;;;;7.53;5.73;;;10.30;99.90;;;;;;5015665;28;20252;-79
2021/12/26 11:44:38;;;;;;;11.32;6.60;;;10.40;99.90;;;;;;5009238;28;20042;-80
2021/12/26 11:47:40;;;;;;;8.10;5.97;;;10.80;99.90;;;;;;5023091;28;20064;-80
2021/12/26 11:50:32;;;;;;;8.77;5.20;;;12.20;99.90;;;;;;5023005;28;20142;-78
2021/12/26 11:53:51;;;;;;;6.38;4.72;;;14.10;99.90;;;;;;5022078;28;20034;-77
2021/12/26 11:56:45;;;;;;;7.68;4.80;;;15.00;99.90;;;;;;5022117;28;20022;-79
2021/12/26 11:59:32;;;;;;;8.45;5.13;;;15.30;99.90;;;;;;5021920;28;20030;-78
2021/12/26 12:01:59;;;;;;;7.88;5.38;;;14.80;99.90;;;;;;5021585;28;20064;-77
2021/12/26 12:04:25;;;;;;;7.00;4.88;;;13.90;99.90;;;;;;5021731;28;20325;-77
2021/12/26 12:06:55;;;;;;;7.60;4.93;;;13.40;99.90;;;;;;5032316;28;20037;-79
2021/12/26 12:09:48;;;;;;;7.10;5.10;;;12.90;99.90;;;;;;5035495;28;20018;-76
2021/12/26 12:12:15;;;;;;;7.57;5.40;;;12.50;99.90;;;;;;5029490;28;20108;-79
2021/12/26 12:14:47;;;;;;;7.78;5.18;;;12.10;99.90;;;;;;5022833;28;20370;-79
2021/12/26 12:17:17;;;;;;;7.88;4.90;;;12.00;99.90;;;;;;5022489;28;20041;-78
2021/12/26 12:20:14;;;;;;;6.90;4.90;;;11.80;99.90;;;;;;5022853;28;20096;-78
2021/12/26 12:23:08;;;;;;;7.28;4.80;;;11.70;99.90;;;;;;5021341;28;20060;-80
2021/12/26 12:25:34;;;;;;;8.32;5.32;;;11.50;99.90;;;;;;5022441;28;20316;-79
2021/12/26 12:28:21;;;;;;;7.63;5.18;;;11.50;99.90;;;;;;5021087;28;20047;-79
2021/12/26 12:30:54;;;;;;;8.48;5.55;;;11.20;99.90;;;;;;5021776;28;20057;-79
2021/12/26 12:33:21;;;;;;;9.15;6.20;;;11.00;99.90;;;;;;5022453;28;20041;-79
2021/12/26 12:35:52;;;;;;;7.45;5.38;;;11.00;99.90;;;;;;5022211;28;20079;-79
2021/12/26 12:38:39;;;;;;;9.07;5.70;;;10.90;99.90;;;;;;5021745;28;20026;-78
2021/12/26 12:41:10;;;;;;;9.98;5.82;;;10.70;99.90;;;;;;5021083;28;20324;-78
2021/12/26 12:43:47;;;;;;;9.70;5.57;;;10.80;99.90;;;;;;5021960;28;20355;-79
2021/12/26 12:46:13;;;;;;;9.10;5.40;;;10.80;99.90;;;;;;5022002;28;20105;-78
2021/12/26 12:49:00;;;;;;;7.80;5.97;;;10.70;99.90;;;;;;5022705;28;20041;-78
2021/12/26 12:51:26;;;;;;;8.52;5.43;;;10.80;99.90;;;;;;5022522;28;20034;-78
2021/12/26 12:53:58;;;;;;;9.52;5.65;;;10.70;99.90;;;;;;5022087;28;20048;-78
2021/12/26 12:56:38;;;;;;;7.65;5.60;;;10.60;99.90;;;;;;5021427;28;20033;-79
2021/12/26 12:59:12;;;;;;;8.23;5.57;;;10.50;99.90;;;;;;5021838;28;20092;-81
2021/12/26 13:01:53;;;;;;;7.65;5.13;;;10.40;99.90;;;;;;5020436;28;20042;-78
2021/12/26 13:04:46;;;;;;;8.45;5.82;;;10.30;99.90;;;;;;5021645;28;20030;-78
2021/12/26 13:07:24;;;;;;;7.68;5.22;;;10.20;99.90;;;;;;5022977;28;20066;-79
2021/12/26 13:10:05;;;;;;;8.05;4.90;;;10.20;99.90;;;;;;5022584;28;20041;-78
2021/12/26 13:12:31;;;;;;;6.93;4.95;;;10.30;99.90;;;;;;5024706;28;20109;-79
2021/12/26 13:14:59;;;;;;;8.23;5.10;;;10.20;99.90;;;;;;5025340;28;20229;-79
2021/12/26 13:17:31;;;;;;;7.90;5.60;;;10.00;99.90;;;;;;5025551;28;20038;-79
2021/12/26 13:20:10;;;;;;;8.82;5.40;;;9.90;99.90;;;;;;5024064;28;20033;-79
2021/12/26 13:22:48;;;;;;;7.68;4.85;;;9.70;99.90;;;;;;5024513;28;20040;-78